Venez Explorer Les Airs Avec Nous!

Que ce soit pour un vol de découverte, pour apprendre l’art du pilotage ou pour voyager, venez nous rejoindre.

Information en heures locale pour LFDL
26 mai 2019

Metar
LFBI 260200Z AUTO 30005KT 9999 NCD 12/11 Q1020 TEMPO 0400 BCFG

Lever du soleil aéronautique : 03:43

Lever du soleil : 04:13

Coucher du soleil :19:39

Coucher du soleil aéronautique :20:09

Contacts

Téléphone

Club:
07-66-57-42-61

Michel Richez (président):
06-52-73-09-01

Adresse

Aéroclub de Loudun
Bellevue
86200 Loudun

Vous vous trouvez sur un site temporaire.

Un site définitif sera disponible rapidement, en attendant vous pouvez nous contacter via les informations ci-dessus

Fermer le menu